ACA0711 CYVR-LSZH
Flight info
| Callsign | ACA0711 |
|---|---|
| Flight time | N/A |
| Altitude | 35000 |
| Route | DCT LYTON DCT LONRO DCT YZU J527 YMM DCT 59N100W/N0490F370 61N090W 62N080W DCT TEFFO DCT BERUS/M084F370 DCT EMBOK DCT 63N050W/M084F390 62N040W 60N030W 58N020W DCT SUNOT/N0475F390 DCT KESIX DCT APSOV DCT BELOX/N0485F410 DCT BUKUT L603 LAMSO DCT EVELI DCT ASBON DCT TUSUK DCT ULNOK L607 SUNEG T721 LAMGO/N0445F270 T721 RILAX RILAX2A |
| Aircraft | B772/H-SDE2E3FGHIJ5LORVWXY/LB1D1 |
Departure
| Time | 2026-05-03 23:45 |
|---|---|
| Airport | Vancouver International Airport (CYVR) |
Arrival
| Time | N/A |
|---|---|
| Airport | Zürich Airport (LSZH) |
| Time | Latitude | Longitude | Altitude | Speed | Heading |
|---|---|---|---|---|---|
| 2026-05-03 22:42 | 49.19816 | -123.18156 | 14 ft | 0 kts | 42° |
| 2026-05-03 22:49 | 49.19815 | -123.18156 | 14 ft | 0 kts | 42° |
| 2026-05-03 22:50 | 49.19815 | -123.18157 | 14 ft | 0 kts | 42° |
| 2026-05-03 23:04 | 49.19815 | -123.18158 | 14 ft | 0 kts | 42° |
| 2026-05-03 23:12 | 49.19814 | -123.18158 | 14 ft | 0 kts | 42° |
| 2026-05-03 23:18 | 49.19814 | -123.18159 | 14 ft | 0 kts | 42° |
| 2026-05-03 23:34 | 49.19812 | -123.18162 | 14 ft | 2 kts | 41° |
| 2026-05-03 23:35 | 49.19792 | -123.18186 | 15 ft | 4 kts | 33° |
| 2026-05-03 23:35 | 49.19769 | -123.18207 | 15 ft | 4 kts | 22° |
| 2026-05-03 23:35 | 49.19744 | -123.18220 | 15 ft | 4 kts | 11° |
| 2026-05-03 23:35 | 49.19717 | -123.18224 | 15 ft | 4 kts | 357° |
| 2026-05-03 23:36 | 49.19691 | -123.18218 | 15 ft | 4 kts | 342° |
| 2026-05-03 23:36 | 49.19667 | -123.18203 | 15 ft | 4 kts | 326° |
| 2026-05-03 23:36 | 49.19647 | -123.18178 | 15 ft | 3 kts | 312° |
| 2026-05-03 23:36 | 49.19646 | -123.18175 | 15 ft | 3 kts | 312° |
| 2026-05-03 23:37 | 49.19645 | -123.18175 | 14 ft | 0 kts | 312° |
| 2026-05-03 23:38 | 49.19649 | -123.18181 | 14 ft | 5 kts | 312° |
| 2026-05-03 23:39 | 49.19684 | -123.18270 | 14 ft | 13 kts | 282° |
| 2026-05-03 23:39 | 49.19701 | -123.18439 | 14 ft | 17 kts | 278° |
| 2026-05-03 23:39 | 49.19720 | -123.18557 | 14 ft | 17 kts | 293° |
| 2026-05-03 23:39 | 49.19756 | -123.18733 | 14 ft | 17 kts | 278° |
| 2026-05-03 23:40 | 49.19772 | -123.18917 | 14 ft | 17 kts | 279° |
| 2026-05-03 23:40 | 49.19774 | -123.19094 | 14 ft | 16 kts | 238° |
| 2026-05-03 23:40 | 49.19672 | -123.19150 | 14 ft | 16 kts | 191° |
| 2026-05-03 23:40 | 49.19563 | -123.19150 | 14 ft | 16 kts | 158° |
| 2026-05-03 23:41 | 49.19471 | -123.19060 | 15 ft | 16 kts | 144° |
| 2026-05-03 23:41 | 49.19383 | -123.18958 | 14 ft | 16 kts | 140° |
| 2026-05-03 23:41 | 49.19281 | -123.18829 | 14 ft | 22 kts | 141° |
| 2026-05-03 23:41 | 49.19149 | -123.18667 | 15 ft | 27 kts | 143° |
| 2026-05-03 23:42 | 49.18991 | -123.18475 | 14 ft | 31 kts | 134° |
| 2026-05-03 23:42 | 49.18924 | -123.18160 | 14 ft | 31 kts | 101° |
| 2026-05-03 23:42 | 49.18887 | -123.17844 | 14 ft | 30 kts | 99° |
| 2026-05-03 23:42 | 49.18852 | -123.17530 | 14 ft | 30 kts | 99° |
| 2026-05-03 23:43 | 49.18818 | -123.17219 | 14 ft | 30 kts | 99° |
| 2026-05-03 23:43 | 49.18783 | -123.16905 | 14 ft | 30 kts | 99° |
| 2026-05-03 23:43 | 49.18748 | -123.16590 | 15 ft | 30 kts | 101° |
| 2026-05-03 23:43 | 49.18689 | -123.16288 | 14 ft | 30 kts | 126° |
| 2026-05-03 23:44 | 49.18585 | -123.16055 | 15 ft | 21 kts | 158° |
| 2026-05-03 23:44 | 49.18485 | -123.16152 | 15 ft | 19 kts | 274° |
| 2026-05-03 23:44 | 49.18487 | -123.16171 | 15 ft | 0 kts | 277° |
| 2026-05-03 23:45 | 49.18505 | -123.16386 | 14 ft | 54 kts | 279° |
| 2026-05-03 23:45 | 49.18616 | -123.17319 | 15 ft | 122 kts | 280° |
| 2026-05-03 23:45 | 49.18795 | -123.18866 | 52 ft | 171 kts | 280° |
| 2026-05-03 23:45 | 49.18989 | -123.20643 | 738 ft | 168 kts | 280° |
| 2026-05-03 23:46 | 49.19187 | -123.22442 | 1394 ft | 175 kts | 281° |
| 2026-05-03 23:46 | 49.19391 | -123.24292 | 2026 ft | 178 kts | 281° |
| 2026-05-03 23:46 | 49.19610 | -123.26240 | 2348 ft | 193 kts | 281° |
| 2026-05-03 23:46 | 49.19838 | -123.28313 | 2805 ft | 199 kts | 279° |
| 2026-05-03 23:47 | 49.20065 | -123.30454 | 3190 ft | 210 kts | 279° |
| 2026-05-03 23:47 | 49.20283 | -123.32680 | 3558 ft | 216 kts | 278° |
| 2026-05-03 23:47 | 49.20484 | -123.34935 | 4157 ft | 211 kts | 277° |
| 2026-05-03 23:47 | 49.20745 | -123.37123 | 4619 ft | 210 kts | 292° |
| 2026-05-03 23:48 | 49.21497 | -123.39125 | 4792 ft | 222 kts | 304° |
| 2026-05-03 23:48 | 49.22417 | -123.41052 | 5173 ft | 224 kts | 317° |
| 2026-05-03 23:48 | 49.23745 | -123.42229 | 5518 ft | 227 kts | 347° |
| 2026-05-03 23:48 | 49.25322 | -123.42252 | 5892 ft | 230 kts | 17° |
| 2026-05-03 23:49 | 49.26734 | -123.41135 | 6271 ft | 230 kts | 30° |
| 2026-05-03 23:49 | 49.28210 | -123.39988 | 6455 ft | 243 kts | 26° |
| 2026-05-03 23:49 | 49.29758 | -123.38868 | 6874 ft | 248 kts | 26° |
| 2026-05-03 23:49 | 49.31333 | -123.37720 | 7294 ft | 254 kts | 26° |
| 2026-05-03 23:50 | 49.32919 | -123.36462 | 7658 ft | 259 kts | 34° |
| 2026-05-03 23:50 | 49.34180 | -123.34522 | 8066 ft | 256 kts | 53° |
| 2026-05-03 23:50 | 49.35284 | -123.32275 | 8296 ft | 269 kts | 52° |
| 2026-05-03 23:50 | 49.36447 | -123.29988 | 8760 ft | 273 kts | 51° |
| 2026-05-03 23:51 | 49.37657 | -123.27732 | 9237 ft | 276 kts | 49° |
| 2026-05-03 23:51 | 49.38902 | -123.25511 | 9694 ft | 279 kts | 48° |
| 2026-05-03 23:51 | 49.40201 | -123.23271 | 10108 ft | 283 kts | 47° |
| 2026-05-03 23:51 | 49.41562 | -123.20983 | 10252 ft | 298 kts | 47° |
| 2026-05-03 23:52 | 49.43007 | -123.18592 | 10381 ft | 313 kts | 46° |
| 2026-05-03 23:52 | 49.44546 | -123.16078 | 10497 ft | 331 kts | 46° |
| 2026-05-03 23:52 | 49.46174 | -123.13437 | 10635 ft | 350 kts | 46° |
| 2026-05-03 23:52 | 49.47889 | -123.10676 | 10966 ft | 362 kts | 46° |
| 2026-05-03 23:53 | 49.49649 | -123.07850 | 11557 ft | 369 kts | 45° |
| 2026-05-03 23:53 | 49.51445 | -123.04969 | 12174 ft | 375 kts | 45° |
| 2026-05-03 23:53 | 49.53269 | -123.02047 | 12885 ft | 380 kts | 45° |
| 2026-05-03 23:53 | 49.55083 | -122.99136 | 13604 ft | 383 kts | 45° |
| 2026-05-03 23:54 | 49.56944 | -122.96153 | 14224 ft | 388 kts | 45° |
| 2026-05-03 23:54 | 49.58821 | -122.93138 | 14927 ft | 390 kts | 45° |
| 2026-05-03 23:54 | 49.60707 | -122.90105 | 15532 ft | 394 kts | 45° |
| 2026-05-03 23:54 | 49.62620 | -122.87027 | 16128 ft | 398 kts | 45° |
| 2026-05-03 23:55 | 49.64547 | -122.83921 | 16772 ft | 400 kts | 45° |
| 2026-05-03 23:55 | 49.66455 | -122.80840 | 17337 ft | 404 kts | 45° |
| 2026-05-03 23:55 | 49.68413 | -122.77679 | 17799 ft | 409 kts | 45° |
| 2026-05-03 23:55 | 49.70382 | -122.74494 | 18331 ft | 412 kts | 45° |
| 2026-05-03 23:56 | 49.72366 | -122.71279 | 18810 ft | 414 kts | 44° |
| 2026-05-03 23:56 | 49.74359 | -122.68048 | 19304 ft | 417 kts | 44° |
| 2026-05-03 23:56 | 49.76369 | -122.64787 | 19764 ft | 420 kts | 44° |
| 2026-05-03 23:56 | 49.78387 | -122.61506 | 20277 ft | 421 kts | 44° |
| 2026-05-03 23:57 | 49.80412 | -122.58207 | 20735 ft | 424 kts | 44° |
| 2026-05-03 23:57 | 49.82429 | -122.54916 | 21163 ft | 428 kts | 44° |
| 2026-05-03 23:57 | 49.84487 | -122.51559 | 21587 ft | 431 kts | 44° |
| 2026-05-03 23:57 | 49.86556 | -122.48184 | 21963 ft | 432 kts | 44° |
| 2026-05-03 23:58 | 49.88644 | -122.44767 | 22404 ft | 435 kts | 44° |
| 2026-05-03 23:58 | 49.90728 | -122.41347 | 22813 ft | 438 kts | 44° |
| 2026-05-03 23:58 | 49.92832 | -122.37891 | 23202 ft | 442 kts | 44° |
| 2026-05-03 23:58 | 49.94928 | -122.34446 | 23588 ft | 445 kts | 44° |
| 2026-05-03 23:59 | 49.97064 | -122.30932 | 23905 ft | 448 kts | 44° |
| 2026-05-03 23:59 | 49.99203 | -122.27407 | 24382 ft | 447 kts | 44° |
| 2026-05-03 23:59 | 50.01353 | -122.23859 | 24729 ft | 450 kts | 44° |
| 2026-05-03 23:59 | 50.03505 | -122.20304 | 25085 ft | 452 kts | 44° |
| 2026-05-04 00:00 | 50.05662 | -122.16735 | 25454 ft | 453 kts | 44° |
| 2026-05-04 00:00 | 50.07831 | -122.13141 | 25813 ft | 455 kts | 44° |
| 2026-05-04 00:00 | 50.09967 | -122.09595 | 26155 ft | 457 kts | 44° |
| 2026-05-04 00:00 | 50.12143 | -122.05977 | 26552 ft | 458 kts | 44° |
| 2026-05-04 00:01 | 50.14331 | -122.02335 | 26892 ft | 460 kts | 44° |
| 2026-05-04 00:01 | 50.16525 | -121.98678 | 27189 ft | 463 kts | 44° |
| 2026-05-04 00:01 | 50.18729 | -121.95001 | 27549 ft | 463 kts | 44° |
| 2026-05-04 00:01 | 50.20931 | -121.91321 | 27921 ft | 464 kts | 44° |
| 2026-05-04 00:02 | 50.23141 | -121.87622 | 28258 ft | 466 kts | 44° |
| 2026-05-04 00:02 | 50.25374 | -121.83937 | 28542 ft | 467 kts | 42° |
| 2026-05-04 00:02 | 50.27727 | -121.80427 | 28762 ft | 469 kts | 40° |
| 2026-05-04 00:02 | 50.30102 | -121.77000 | 29037 ft | 470 kts | 40° |
| 2026-05-04 00:03 | 50.32515 | -121.73550 | 29379 ft | 470 kts | 39° |
| 2026-05-04 00:03 | 50.34933 | -121.70095 | 29693 ft | 471 kts | 40° |
| 2026-05-04 00:03 | 50.37349 | -121.66626 | 30011 ft | 471 kts | 40° |
| 2026-05-04 00:03 | 50.39764 | -121.63138 | 30344 ft | 469 kts | 40° |
| 2026-05-04 00:04 | 50.42140 | -121.59688 | 30845 ft | 463 kts | 40° |
| 2026-05-04 00:04 | 50.44497 | -121.56258 | 31278 ft | 460 kts | 39° |
| 2026-05-04 00:04 | 50.46830 | -121.52858 | 31628 ft | 457 kts | 39° |
| 2026-05-04 00:04 | 50.49154 | -121.49463 | 32018 ft | 454 kts | 39° |
| 2026-05-04 00:05 | 50.51430 | -121.46131 | 32407 ft | 451 kts | 39° |
| 2026-05-04 00:05 | 50.53716 | -121.42780 | 32822 ft | 448 kts | 39° |
| 2026-05-04 00:05 | 50.55986 | -121.39449 | 33217 ft | 444 kts | 39° |
| 2026-05-04 00:05 | 50.58237 | -121.36140 | 33609 ft | 441 kts | 38° |
| 2026-05-04 00:06 | 50.60481 | -121.32841 | 33977 ft | 439 kts | 38° |
| 2026-05-04 00:06 | 50.62708 | -121.29562 | 34249 ft | 437 kts | 38° |
| 2026-05-04 00:06 | 50.64929 | -121.26288 | 34465 ft | 437 kts | 38° |
| 2026-05-04 00:06 | 50.67150 | -121.23011 | 34664 ft | 437 kts | 38° |
| 2026-05-04 00:07 | 50.69365 | -121.19737 | 34856 ft | 437 kts | 38° |
| 2026-05-04 00:07 | 50.71567 | -121.16481 | 34897 ft | 440 kts | 38° |
| 2026-05-04 00:07 | 50.76034 | -121.09855 | 34950 ft | 440 kts | 38° |
| 2026-05-04 00:08 | 50.80468 | -121.03253 | 34957 ft | 434 kts | 38° |